createdAt,value
2022-09-12T00:00:32.675Z,994.95
2022-09-12T00:01:32.647Z,994.90
2022-09-12T00:02:32.502Z,994.96
2022-09-12T00:03:32.443Z,994.89
2022-09-12T00:04:32.466Z,994.87
2022-09-12T00:05:33.147Z,994.89
2022-09-12T00:06:32.478Z,994.89
2022-09-12T00:07:32.568Z,994.86
2022-09-12T00:08:32.496Z,994.87
2022-09-12T00:09:32.466Z,994.90
2022-09-12T00:10:32.323Z,994.95
2022-09-12T00:11:32.427Z,994.95
2022-09-12T00:12:32.327Z,994.93
2022-09-12T00:13:32.288Z,994.96
2022-09-12T00:14:32.242Z,994.97
2022-09-12T00:15:32.307Z,994.94
2022-09-12T00:16:33.257Z,994.92
2022-09-12T00:17:32.171Z,994.95
2022-09-12T00:18:33.240Z,994.91
2022-09-12T00:19:32.156Z,994.85
2022-09-12T00:20:32.248Z,994.91
2022-09-12T00:21:32.184Z,994.86
2022-09-12T00:22:32.263Z,994.86
2022-09-12T00:23:32.229Z,994.85
2022-09-12T00:24:32.776Z,994.85
2022-09-12T00:25:32.164Z,994.88
2022-09-12T00:26:32.258Z,994.85
2022-09-12T00:27:32.136Z,994.81
2022-09-12T00:28:32.028Z,994.83
2022-09-12T00:29:32.697Z,994.75
2022-09-12T00:30:32.127Z,994.76
2022-09-12T00:31:32.133Z,994.85
2022-09-12T00:32:32.054Z,994.77
2022-09-12T00:33:32.012Z,994.85
2022-09-12T00:34:32.094Z,994.81
2022-09-12T00:35:31.992Z,994.82
2022-09-12T00:36:32.036Z,994.79
2022-09-12T00:37:31.988Z,994.80
2022-09-12T00:38:31.964Z,994.82
2022-09-12T00:39:31.969Z,994.80
2022-09-12T00:40:32.049Z,994.76
2022-09-12T00:41:31.997Z,994.80
2022-09-12T00:42:31.873Z,994.80
2022-09-12T00:43:31.901Z,994.78
2022-09-12T00:44:32.031Z,994.74
2022-09-12T00:45:31.972Z,994.75
2022-09-12T00:46:31.892Z,994.73
2022-09-12T00:47:32.100Z,994.69
2022-09-12T00:48:31.874Z,994.73
2022-09-12T00:49:32.105Z,994.64
2022-09-12T00:50:31.809Z,994.69
2022-09-12T00:51:31.793Z,994.63
2022-09-12T00:52:31.753Z,994.65
2022-09-12T00:53:31.828Z,994.66
2022-09-12T00:54:31.806Z,994.61
2022-09-12T00:55:31.825Z,994.61
2022-09-12T00:56:31.845Z,994.63
2022-09-12T00:57:31.769Z,994.56
2022-09-12T00:58:31.810Z,994.56
2022-09-12T00:59:31.733Z,994.54
2022-09-12T01:00:31.721Z,994.51
2022-09-12T01:01:32.775Z,994.52
2022-09-12T01:02:32.904Z,994.57
2022-09-12T01:03:31.729Z,994.54
2022-09-12T01:04:31.714Z,994.54
2022-09-12T01:05:31.794Z,994.56
2022-09-12T01:06:31.733Z,994.56
2022-09-12T01:07:35.791Z,994.54
2022-09-12T01:08:33.733Z,994.57
2022-09-12T01:09:31.653Z,994.60
2022-09-12T01:10:31.505Z,994.55
2022-09-12T01:11:31.509Z,994.55
2022-09-12T01:12:31.482Z,994.57
2022-09-12T01:13:31.489Z,994.58
2022-09-12T01:14:31.490Z,994.51
2022-09-12T01:15:31.507Z,994.47
2022-09-12T01:16:32.457Z,994.47
2022-09-12T01:17:33.863Z,994.44
2022-09-12T01:18:32.631Z,994.46
2022-09-12T01:19:32.499Z,994.49
2022-09-12T01:20:33.899Z,994.49
2022-09-12T01:21:32.662Z,994.46
2022-09-12T01:22:32.786Z,994.48
2022-09-12T01:23:31.478Z,994.40
2022-09-12T01:24:32.744Z,994.44
2022-09-12T01:25:32.539Z,994.47
2022-09-12T01:26:31.555Z,994.42
2022-09-12T01:27:33.683Z,994.48
2022-09-12T01:28:32.431Z,994.45
2022-09-12T01:29:34.123Z,994.44
2022-09-12T01:30:32.498Z,994.50
2022-09-12T01:31:32.561Z,994.52
2022-09-12T01:32:31.470Z,994.48
2022-09-12T01:33:33.455Z,994.49
2022-09-12T01:34:32.551Z,994.51
2022-09-12T01:35:31.440Z,994.49
2022-09-12T01:36:31.251Z,994.50
2022-09-12T01:37:31.232Z,994.50
2022-09-12T01:38:31.211Z,994.48
2022-09-12T01:39:31.207Z,994.51
2022-09-12T01:40:31.216Z,994.55
2022-09-12T01:41:31.200Z,994.52
2022-09-12T01:42:31.172Z,994.49
2022-09-12T01:43:31.156Z,994.50
2022-09-12T01:44:31.273Z,994.48
2022-09-12T01:45:31.192Z,994.43
2022-09-12T01:46:31.190Z,994.44
2022-09-12T01:47:31.120Z,994.48
2022-09-12T01:48:31.120Z,994.45
2022-09-12T01:49:32.116Z,994.43
2022-09-12T01:51:03.704Z,994.46
2022-09-12T01:51:31.216Z,994.49
2022-09-12T01:52:31.221Z,994.41
2022-09-12T01:53:31.170Z,994.52
2022-09-12T01:54:31.161Z,994.52
2022-09-12T01:55:31.127Z,994.45
2022-09-12T01:56:31.129Z,994.45
2022-09-12T01:57:31.100Z,994.36
2022-09-12T01:58:31.065Z,994.44
2022-09-12T01:59:31.040Z,994.49
2022-09-12T02:00:31.050Z,994.43
2022-09-12T02:01:31.096Z,994.43
2022-09-12T02:02:31.013Z,994.34
2022-09-12T02:03:31.554Z,994.34
2022-09-12T02:04:34.158Z,994.37
2022-09-12T02:05:31.990Z,994.39
2022-09-12T02:06:31.020Z,994.35
2022-09-12T02:07:31.049Z,994.31
2022-09-12T02:08:30.940Z,994.37
2022-09-12T02:09:30.997Z,994.29
2022-09-12T02:10:32.696Z,994.36
2022-09-12T02:11:31.917Z,994.35
2022-09-12T02:12:30.921Z,994.30
2022-09-12T02:13:30.901Z,994.25
2022-09-12T02:14:30.845Z,994.27
2022-09-12T02:15:30.870Z,994.24
2022-09-12T02:16:30.973Z,994.24
2022-09-12T02:17:30.870Z,994.17
2022-09-12T02:18:30.849Z,994.23
2022-09-12T02:19:30.878Z,994.27
2022-09-12T02:20:47.415Z,994.24
2022-09-12T02:21:32.847Z,994.21
2022-09-12T02:22:31.650Z,994.22
2022-09-12T02:23:31.875Z,994.30
2022-09-12T02:24:30.748Z,994.21
2022-09-12T02:25:30.754Z,994.30
2022-09-12T02:26:30.765Z,994.27
2022-09-12T02:27:31.572Z,994.26
2022-09-12T02:28:30.757Z,994.22
2022-09-12T02:29:30.771Z,994.27
2022-09-12T02:30:30.767Z,994.25
2022-09-12T02:31:30.699Z,994.23
2022-09-12T02:32:30.711Z,994.22
2022-09-12T02:33:30.725Z,994.18
2022-09-12T02:34:30.690Z,994.21
2022-09-12T02:35:30.683Z,994.22
2022-09-12T02:36:30.654Z,994.24
2022-09-12T02:37:30.674Z,994.23
2022-09-12T02:38:30.667Z,994.23
2022-09-12T02:39:30.654Z,994.21
2022-09-12T02:40:30.622Z,994.22
2022-09-12T02:41:30.648Z,994.19
2022-09-12T02:42:30.603Z,994.20
2022-09-12T02:43:30.662Z,994.17
2022-09-12T02:44:30.642Z,994.21
2022-09-12T02:45:30.651Z,994.21
2022-09-12T02:46:30.564Z,994.23
2022-09-12T02:47:30.595Z,994.21
2022-09-12T02:48:30.518Z,994.22
2022-09-12T02:49:30.565Z,994.20
2022-09-12T02:50:30.535Z,994.25
2022-09-12T02:51:30.536Z,994.20
2022-09-12T02:52:30.575Z,994.26
2022-09-12T02:53:30.572Z,994.24
2022-09-12T02:54:30.544Z,994.21
2022-09-12T02:55:30.506Z,994.17
2022-09-12T02:56:30.475Z,994.15
2022-09-12T02:57:30.480Z,994.12
2022-09-12T02:58:30.479Z,994.15
2022-09-12T02:59:30.435Z,994.14
2022-09-12T03:00:30.435Z,994.17
2022-09-12T03:01:30.546Z,994.13
2022-09-12T03:02:30.475Z,994.16
2022-09-12T03:03:30.384Z,994.15
2022-09-12T03:04:30.501Z,994.19
2022-09-12T03:05:30.367Z,994.25
2022-09-12T03:06:30.352Z,994.26
2022-09-12T03:07:30.364Z,994.26
2022-09-12T03:08:30.332Z,994.13
2022-09-12T03:09:30.340Z,994.16
2022-09-12T03:10:30.320Z,994.18
2022-09-12T03:11:30.349Z,994.18
2022-09-12T03:12:30.316Z,994.15
2022-09-12T03:13:30.332Z,994.18
2022-09-12T03:14:30.276Z,994.18
2022-09-12T03:15:30.232Z,994.17
2022-09-12T03:16:30.488Z,994.11
2022-09-12T03:17:30.287Z,994.12
2022-09-12T03:18:30.232Z,994.14
2022-09-12T03:19:30.266Z,994.16
2022-09-12T03:20:30.232Z,994.13
2022-09-12T03:21:30.260Z,994.13
2022-09-12T03:22:30.250Z,994.16
2022-09-12T03:23:30.192Z,994.11
2022-09-12T03:24:30.265Z,994.11
2022-09-12T03:25:30.160Z,994.13
2022-09-12T03:26:30.177Z,994.07
2022-09-12T03:27:30.214Z,994.15
2022-09-12T03:28:30.226Z,994.17
2022-09-12T03:29:30.089Z,994.18
2022-09-12T03:30:30.180Z,994.13
2022-09-12T03:31:30.113Z,994.16
2022-09-12T03:32:30.757Z,994.16
2022-09-12T03:33:30.129Z,994.16
2022-09-12T03:34:30.024Z,994.13
2022-09-12T03:35:30.053Z,994.20
2022-09-12T03:36:30.113Z,994.10
2022-09-12T03:37:30.078Z,994.12
2022-09-12T03:38:30.057Z,994.12
2022-09-12T03:39:30.065Z,994.17
2022-09-12T03:40:30.026Z,994.08
2022-09-12T03:41:29.997Z,994.10
2022-09-12T03:42:30.049Z,994.07
2022-09-12T03:43:30.011Z,994.09
2022-09-12T03:44:30.013Z,994.03
2022-09-12T03:45:30.012Z,994.11
2022-09-12T03:46:29.962Z,994.15
2022-09-12T03:47:29.954Z,994.08
2022-09-12T03:48:29.974Z,994.19
2022-09-12T03:49:29.986Z,994.17
2022-09-12T03:50:30.022Z,994.19
2022-09-12T03:51:29.879Z,994.15
2022-09-12T03:52:29.910Z,994.08
2022-09-12T03:53:30.143Z,994.09
2022-09-12T03:54:29.877Z,994.05
2022-09-12T03:55:29.887Z,994.13
2022-09-12T03:56:29.854Z,994.05
2022-09-12T03:57:29.816Z,994.08
2022-09-12T03:58:29.854Z,994.10
2022-09-12T03:59:29.886Z,994.08
2022-09-12T04:00:29.802Z,994.06
2022-09-12T04:01:29.854Z,994.08
2022-09-12T04:02:29.845Z,994.12
2022-09-12T04:03:29.842Z,994.10
2022-09-12T04:04:29.791Z,994.12
2022-09-12T04:05:29.778Z,994.09
2022-09-12T04:06:29.793Z,994.06
2022-09-12T04:07:29.711Z,994.12
2022-09-12T04:08:29.731Z,994.08
2022-09-12T04:09:29.742Z,994.09
2022-09-12T04:10:29.703Z,994.17
2022-09-12T04:11:30.610Z,994.21
2022-09-12T04:12:29.708Z,994.24
2022-09-12T04:13:29.751Z,994.21
2022-09-12T04:14:29.651Z,994.23
2022-09-12T04:15:29.703Z,994.23
2022-09-12T04:16:29.741Z,994.31
2022-09-12T04:17:29.651Z,994.21
2022-09-12T04:18:29.614Z,994.28
2022-09-12T04:19:29.630Z,994.25
2022-09-12T04:20:29.638Z,994.23
2022-09-12T04:21:29.632Z,994.23
2022-09-12T04:22:29.612Z,994.22
2022-09-12T04:23:29.560Z,994.25
2022-09-12T04:24:29.575Z,994.20
2022-09-12T04:25:29.600Z,994.19
2022-09-12T04:26:29.545Z,994.15
2022-09-12T04:27:29.512Z,994.15
2022-09-12T04:28:29.604Z,994.16
2022-09-12T04:29:29.544Z,994.16
2022-09-12T04:30:29.574Z,994.17
2022-09-12T04:31:30.638Z,994.17
2022-09-12T04:32:29.520Z,994.16
2022-09-12T04:33:29.509Z,994.17
2022-09-12T04:34:29.517Z,994.15
2022-09-12T04:35:29.456Z,994.25
2022-09-12T04:36:29.452Z,994.16
2022-09-12T04:37:29.548Z,994.19
2022-09-12T04:38:29.456Z,994.15
2022-09-12T04:40:01.942Z,994.21
2022-09-12T04:40:29.493Z,994.14
2022-09-12T04:42:01.896Z,994.17
2022-09-12T04:42:29.540Z,994.11
2022-09-12T04:43:29.460Z,994.08
2022-09-12T04:44:29.400Z,994.12
2022-09-12T04:45:29.416Z,994.13
2022-09-12T04:46:29.355Z,994.12
2022-09-12T04:47:29.353Z,994.16
2022-09-12T04:48:29.354Z,994.17
2022-09-12T04:49:29.367Z,994.16
2022-09-12T04:50:29.362Z,994.21
2022-09-12T04:51:29.325Z,994.18
2022-09-12T04:52:29.295Z,994.20
2022-09-12T04:53:29.276Z,994.21
2022-09-12T04:54:29.295Z,994.28
2022-09-12T04:55:29.254Z,994.23
2022-09-12T04:56:29.273Z,994.27
2022-09-12T04:57:30.210Z,994.24
2022-09-12T04:58:29.255Z,994.24
2022-09-12T04:59:29.216Z,994.19
2022-09-12T05:00:29.232Z,994.24
2022-09-12T05:01:29.279Z,994.15
2022-09-12T05:02:30.989Z,994.24
2022-09-12T05:03:29.119Z,994.22
2022-09-12T05:04:29.147Z,994.19
2022-09-12T05:05:29.202Z,994.20
2022-09-12T05:06:29.170Z,994.20
2022-09-12T05:07:29.143Z,994.26
2022-09-12T05:08:29.131Z,994.23
2022-09-12T05:09:29.115Z,994.23
2022-09-12T05:10:29.119Z,994.29
2022-09-12T05:11:46.934Z,994.24
2022-09-12T05:12:30.036Z,994.26
2022-09-12T05:13:29.234Z,994.30
2022-09-12T05:14:29.031Z,994.29
2022-09-12T05:15:29.095Z,994.24
2022-09-12T05:16:29.007Z,994.28
2022-09-12T05:17:29.018Z,994.37
2022-09-12T05:18:29.031Z,994.32
2022-09-12T05:19:28.991Z,994.31
2022-09-12T05:20:29.003Z,994.33
2022-09-12T05:21:28.976Z,994.32
2022-09-12T05:22:28.939Z,994.36
2022-09-12T05:23:28.931Z,994.30
2022-09-12T05:24:28.991Z,994.31
2022-09-12T05:25:28.927Z,994.34
2022-09-12T05:26:28.897Z,994.34
2022-09-12T05:27:28.926Z,994.33
2022-09-12T05:28:28.905Z,994.30
2022-09-12T05:29:28.849Z,994.28
2022-09-12T05:30:28.871Z,994.29
2022-09-12T05:31:28.901Z,994.30
2022-09-12T05:32:28.842Z,994.36
2022-09-12T05:33:28.802Z,994.32
2022-09-12T05:34:28.945Z,994.34
2022-09-12T05:35:28.783Z,994.27
2022-09-12T05:36:28.793Z,994.34
2022-09-12T05:37:28.774Z,994.33
2022-09-12T05:38:28.831Z,994.35
2022-09-12T05:39:28.769Z,994.32
2022-09-12T05:40:28.778Z,994.34
2022-09-12T05:41:28.738Z,994.27
2022-09-12T05:42:28.721Z,994.35
2022-09-12T05:43:28.777Z,994.35
2022-09-12T05:44:28.723Z,994.33
2022-09-12T05:45:28.701Z,994.34
2022-09-12T05:46:28.698Z,994.33
2022-09-12T05:47:28.682Z,994.38
2022-09-12T05:48:28.795Z,994.34
2022-09-12T05:49:28.642Z,994.35
2022-09-12T05:50:28.680Z,994.40
2022-09-12T05:51:28.694Z,994.40
2022-09-12T05:52:28.630Z,994.44
2022-09-12T05:53:28.647Z,994.44
2022-09-12T05:54:31.614Z,994.46
2022-09-12T05:55:29.633Z,994.49
2022-09-12T05:56:28.578Z,994.44
2022-09-12T05:57:28.622Z,994.47
2022-09-12T05:58:28.566Z,994.48
2022-09-12T05:59:28.641Z,994.42
2022-09-12T06:00:32.910Z,994.52
2022-09-12T06:01:29.661Z,994.47
2022-09-12T06:02:28.526Z,994.43
2022-09-12T06:03:29.097Z,994.43
2022-09-12T06:04:28.526Z,994.48
2022-09-12T06:05:28.506Z,994.41
2022-09-12T06:06:28.502Z,994.42
2022-09-12T06:07:28.479Z,994.35
2022-09-12T06:08:28.507Z,994.44
2022-09-12T06:09:28.438Z,994.44
2022-09-12T06:10:28.476Z,994.52
2022-09-12T06:11:28.499Z,994.46
2022-09-12T06:12:28.479Z,994.52
2022-09-12T06:13:28.421Z,994.42
2022-09-12T06:14:28.996Z,994.50
2022-09-12T06:15:28.547Z,994.41
2022-09-12T06:16:28.398Z,994.44
2022-09-12T06:17:28.405Z,994.41
2022-09-12T06:18:28.352Z,994.45
2022-09-12T06:19:28.380Z,994.45
2022-09-12T06:20:28.386Z,994.50
2022-09-12T06:21:28.293Z,994.50
2022-09-12T06:22:28.434Z,994.48
2022-09-12T06:23:28.361Z,994.42
2022-09-12T06:24:28.290Z,994.43
2022-09-12T06:25:28.298Z,994.44
2022-09-12T06:26:28.290Z,994.44
2022-09-12T06:27:28.276Z,994.44
2022-09-12T06:28:28.302Z,994.45
2022-09-12T06:29:28.338Z,994.47
2022-09-12T06:30:28.339Z,994.37
2022-09-12T06:31:28.245Z,994.41
2022-09-12T06:32:28.302Z,994.43
2022-09-12T06:33:28.181Z,994.40
2022-09-12T06:34:28.237Z,994.41
2022-09-12T06:35:28.206Z,994.43
2022-09-12T06:36:28.157Z,994.39
2022-09-12T06:37:28.197Z,994.45
2022-09-12T06:38:28.134Z,994.44
2022-09-12T06:39:28.186Z,994.44
2022-09-12T06:40:28.130Z,994.47
2022-09-12T06:41:28.310Z,994.46
2022-09-12T06:42:28.121Z,994.46
2022-09-12T06:43:28.129Z,994.43
2022-09-12T06:44:28.194Z,994.31
2022-09-12T06:45:28.159Z,994.39
2022-09-12T06:46:28.185Z,994.41
2022-09-12T06:47:28.062Z,994.35
2022-09-12T06:48:28.105Z,994.36
2022-09-12T06:49:28.077Z,994.42
2022-09-12T06:50:28.049Z,994.37
2022-09-12T06:51:28.024Z,994.31
2022-09-12T06:52:28.062Z,994.33
2022-09-12T06:53:28.016Z,994.31
2022-09-12T06:54:28.026Z,994.34
2022-09-12T06:55:28.105Z,994.37
2022-09-12T06:56:27.956Z,994.33
2022-09-12T06:57:27.940Z,994.34
2022-09-12T06:58:27.972Z,994.36
2022-09-12T06:59:27.980Z,994.37
2022-09-12T07:00:27.979Z,994.38
2022-09-12T07:01:28.026Z,994.40
2022-09-12T07:02:27.936Z,994.29
2022-09-12T07:03:27.938Z,994.34
2022-09-12T07:04:27.942Z,994.36
2022-09-12T07:05:27.910Z,994.27
2022-09-12T07:06:27.934Z,994.31
2022-09-12T07:07:27.979Z,994.27
2022-09-12T07:08:27.933Z,994.28
2022-09-12T07:09:27.939Z,994.26
2022-09-12T07:10:27.869Z,994.31
2022-09-12T07:11:27.832Z,994.34
2022-09-12T07:12:27.787Z,994.19
2022-09-12T07:13:27.825Z,994.21
2022-09-12T07:14:27.877Z,994.21
2022-09-12T07:15:27.941Z,994.16
2022-09-12T07:16:27.859Z,994.24
2022-09-12T07:17:27.813Z,994.22
2022-09-12T07:18:27.787Z,994.21
2022-09-12T07:19:27.763Z,994.18
2022-09-12T07:20:27.767Z,994.26
2022-09-12T07:21:27.813Z,994.19
2022-09-12T07:22:27.706Z,994.17
2022-09-12T07:23:27.689Z,994.14
2022-09-12T07:24:27.708Z,994.16
2022-09-12T07:25:27.724Z,994.09
2022-09-12T07:26:27.717Z,994.09
2022-09-12T07:27:27.705Z,994.09
2022-09-12T07:28:27.647Z,994.13
2022-09-12T07:29:42.866Z,994.07
2022-09-12T07:30:29.765Z,994.08
2022-09-12T07:31:27.720Z,994.07
2022-09-12T07:32:27.612Z,994.05
2022-09-12T07:33:27.608Z,994.07
2022-09-12T07:34:27.563Z,994.07
2022-09-12T07:35:27.562Z,994.04
2022-09-12T07:36:27.575Z,994.07
2022-09-12T07:37:27.583Z,993.99
2022-09-12T07:38:27.626Z,994.01
2022-09-12T07:39:28.038Z,994.05
2022-09-12T07:40:27.575Z,994.01
2022-09-12T07:41:27.540Z,994.06
2022-09-12T07:42:27.691Z,994.04
2022-09-12T07:43:27.478Z,994.03
2022-09-12T07:44:27.519Z,994.07
2022-09-12T07:45:27.483Z,994.09
2022-09-12T07:46:27.527Z,994.09
2022-09-12T07:47:27.462Z,994.09
2022-09-12T07:48:28.511Z,994.08
2022-09-12T07:49:28.506Z,994.07
2022-09-12T07:50:27.467Z,994.04
2022-09-12T07:51:27.483Z,994.07
2022-09-12T07:52:27.399Z,994.13
2022-09-12T07:53:27.379Z,994.15
2022-09-12T07:54:27.387Z,994.16
2022-09-12T07:55:27.348Z,994.17
2022-09-12T07:56:30.528Z,994.17
2022-09-12T07:57:28.405Z,994.17
2022-09-12T07:58:27.392Z,994.17
2022-09-12T07:59:51.012Z,994.16
2022-09-12T08:00:29.286Z,994.17
2022-09-12T08:01:27.368Z,994.18
2022-09-12T08:02:27.383Z,994.17
2022-09-12T08:03:27.328Z,994.13
2022-09-12T08:04:27.277Z,994.17
2022-09-12T08:05:27.266Z,994.15
2022-09-12T08:06:27.235Z,994.13
2022-09-12T08:07:27.294Z,994.19
2022-09-12T08:08:27.207Z,994.21
2022-09-12T08:09:27.190Z,994.21
2022-09-12T08:10:27.282Z,994.26
2022-09-12T08:11:27.211Z,994.28
2022-09-12T08:12:27.204Z,994.15
2022-09-12T08:13:27.166Z,994.24
2022-09-12T08:14:27.196Z,994.18
2022-09-12T08:15:27.247Z,994.19
2022-09-12T08:16:27.109Z,994.23
2022-09-12T08:17:27.118Z,994.24
2022-09-12T08:18:27.119Z,994.20
2022-09-12T08:19:27.207Z,994.31
2022-09-12T08:20:28.528Z,994.18
2022-09-12T08:21:28.093Z,994.30
2022-09-12T08:22:27.956Z,994.27
2022-09-12T08:23:27.120Z,994.24
2022-09-12T08:24:27.045Z,994.28
2022-09-12T08:25:27.055Z,994.24
2022-09-12T08:26:27.038Z,994.20
2022-09-12T08:27:27.011Z,994.24
2022-09-12T08:28:27.024Z,994.22
2022-09-12T08:29:27.042Z,994.25
2022-09-12T08:30:27.000Z,994.23
2022-09-12T08:31:26.967Z,994.27
2022-09-12T08:32:27.053Z,994.23
2022-09-12T08:33:26.941Z,994.24
2022-09-12T08:34:27.087Z,994.22
2022-09-12T08:35:26.927Z,994.23
2022-09-12T08:36:26.985Z,994.22
2022-09-12T08:37:26.931Z,994.20
2022-09-12T08:38:26.891Z,994.22
2022-09-12T08:39:27.008Z,994.18
2022-09-12T08:40:26.871Z,994.20
2022-09-12T08:41:26.862Z,994.16
2022-09-12T08:42:26.836Z,994.13
2022-09-12T08:43:27.797Z,994.20
2022-09-12T08:44:26.822Z,994.18
2022-09-12T08:45:26.856Z,994.21
2022-09-12T08:46:27.574Z,994.17
2022-09-12T08:47:26.756Z,994.00
2022-09-12T08:48:26.784Z,994.14
2022-09-12T08:49:26.772Z,994.02
2022-09-12T08:50:26.728Z,994.07
2022-09-12T08:51:26.748Z,994.17
2022-09-12T08:52:26.708Z,994.11
2022-09-12T08:53:26.700Z,994.10
2022-09-12T08:54:26.728Z,994.11
2022-09-12T08:55:26.708Z,994.07
2022-09-12T08:56:31.476Z,994.07
2022-09-12T08:57:28.694Z,994.07
2022-09-12T08:58:26.653Z,994.10
2022-09-12T08:59:26.661Z,994.05
2022-09-12T09:00:26.633Z,994.08
2022-09-12T09:01:26.746Z,994.03
2022-09-12T09:02:26.667Z,993.99
2022-09-12T09:03:26.760Z,994.11
2022-09-12T09:04:28.782Z,994.08
2022-09-12T09:05:27.540Z,994.08
2022-09-12T09:06:26.569Z,994.09
2022-09-12T09:07:26.523Z,994.00
2022-09-12T09:08:26.577Z,994.02
2022-09-12T09:09:26.562Z,994.06
2022-09-12T09:10:26.484Z,993.96
2022-09-12T09:11:26.486Z,993.96
2022-09-12T09:12:26.530Z,993.95
2022-09-12T09:13:26.545Z,993.97
2022-09-12T09:14:26.534Z,993.93
2022-09-12T09:15:26.604Z,993.94
2022-09-12T09:16:26.569Z,993.90
2022-09-12T09:17:26.537Z,993.89
2022-09-12T09:18:26.459Z,993.91
2022-09-12T09:19:26.504Z,993.87
2022-09-12T09:20:28.715Z,993.87
2022-09-12T09:21:27.034Z,993.87
2022-09-12T09:22:26.830Z,993.84
2022-09-12T09:23:26.582Z,993.86
2022-09-12T09:24:26.330Z,993.88
2022-09-12T09:25:26.376Z,993.91
2022-09-12T09:26:26.351Z,993.78
2022-09-12T09:27:40.031Z,993.79
2022-09-12T09:28:28.383Z,993.87
2022-09-12T09:29:26.508Z,993.82
2022-09-12T09:30:26.261Z,993.80
2022-09-12T09:31:26.387Z,993.81
2022-09-12T09:32:26.271Z,993.82
2022-09-12T09:33:26.215Z,993.80
2022-09-12T09:34:26.231Z,993.79
2022-09-12T09:35:26.190Z,993.76
2022-09-12T09:36:26.214Z,993.74
2022-09-12T09:37:26.286Z,993.74
2022-09-12T09:38:26.199Z,993.78
2022-09-12T09:39:27.080Z,993.75
2022-09-12T09:40:26.183Z,993.72
2022-09-12T09:41:26.208Z,993.71
2022-09-12T09:42:26.192Z,993.68
2022-09-12T09:43:26.134Z,993.73
2022-09-12T09:44:26.151Z,993.74
2022-09-12T09:45:26.119Z,993.69
2022-09-12T09:46:26.122Z,993.68
2022-09-12T09:47:26.129Z,993.66
2022-09-12T09:48:26.124Z,993.68
2022-09-12T09:49:26.059Z,993.68
2022-09-12T09:50:26.792Z,993.65
2022-09-12T09:51:26.060Z,993.64
2022-09-12T09:52:26.056Z,993.57
2022-09-12T09:53:26.083Z,993.60
2022-09-12T09:54:26.039Z,993.63
2022-09-12T09:55:25.991Z,993.62
2022-09-12T09:56:26.043Z,993.57
2022-09-12T09:57:25.981Z,993.59
2022-09-12T09:58:25.988Z,993.58
2022-09-12T09:59:26.007Z,993.57
2022-09-12T10:00:25.935Z,993.57
2022-09-12T10:01:25.976Z,993.59
2022-09-12T10:02:26.022Z,993.54
2022-09-12T10:03:25.927Z,993.53
2022-09-12T10:04:25.960Z,993.53
2022-09-12T10:05:25.892Z,993.45
2022-09-12T10:06:25.942Z,993.51
2022-09-12T10:07:25.884Z,993.53
2022-09-12T10:08:26.013Z,993.48
2022-09-12T10:09:25.920Z,993.50
2022-09-12T10:10:25.857Z,993.51
2022-09-12T10:11:25.873Z,993.48
2022-09-12T10:12:25.881Z,993.47
2022-09-12T10:13:25.906Z,993.44
2022-09-12T10:14:25.765Z,993.49
2022-09-12T10:15:25.853Z,993.48
2022-09-12T10:16:26.830Z,993.50
2022-09-12T10:17:25.809Z,993.46
2022-09-12T10:18:25.962Z,993.41
2022-09-12T10:19:25.783Z,993.48
2022-09-12T10:20:25.781Z,993.49
2022-09-12T10:21:25.788Z,993.39
2022-09-12T10:22:25.715Z,993.45
2022-09-12T10:23:25.658Z,993.44
2022-09-12T10:24:25.645Z,993.43
2022-09-12T10:25:25.715Z,993.48
2022-09-12T10:26:25.856Z,993.41
2022-09-12T10:27:25.979Z,993.45
2022-09-12T10:28:25.670Z,993.44
2022-09-12T10:29:25.705Z,993.49
2022-09-12T10:30:25.704Z,993.47
2022-09-12T10:31:26.625Z,993.39
2022-09-12T10:32:30.466Z,993.42
2022-09-12T10:33:27.632Z,993.40
2022-09-12T10:34:25.619Z,993.38
2022-09-12T10:35:25.577Z,993.39
2022-09-12T10:36:26.428Z,993.35
2022-09-12T10:37:25.617Z,993.34
2022-09-12T10:38:25.563Z,993.36
2022-09-12T10:39:25.523Z,993.39
2022-09-12T10:40:25.737Z,993.36
2022-09-12T10:41:25.502Z,993.38
2022-09-12T10:42:25.498Z,993.32
2022-09-12T10:43:25.478Z,993.30
2022-09-12T10:44:25.526Z,993.33
2022-09-12T10:45:25.480Z,993.23
2022-09-12T10:46:25.550Z,993.30
2022-09-12T10:47:25.462Z,993.26
2022-09-12T10:48:25.415Z,993.28
2022-09-12T10:49:25.425Z,993.23
2022-09-12T10:50:25.479Z,993.27
2022-09-12T10:51:25.365Z,993.31
2022-09-12T10:52:26.247Z,993.26
2022-09-12T10:53:25.399Z,993.22
2022-09-12T10:54:25.363Z,993.26
2022-09-12T10:55:25.331Z,993.24
2022-09-12T10:56:25.411Z,993.22
2022-09-12T10:57:25.328Z,993.23
2022-09-12T10:58:25.276Z,993.28
2022-09-12T10:59:25.255Z,993.26
2022-09-12T11:00:25.307Z,993.17
2022-09-12T11:01:25.368Z,993.20
2022-09-12T11:02:25.402Z,993.23
2022-09-12T11:03:25.325Z,993.22
2022-09-12T11:04:26.048Z,993.23
2022-09-12T11:05:25.192Z,993.23
2022-09-12T11:06:25.284Z,993.16
2022-09-12T11:07:25.224Z,993.20
2022-09-12T11:08:25.208Z,993.18
2022-09-12T11:09:25.820Z,993.16
2022-09-12T11:10:25.183Z,993.14
2022-09-12T11:11:25.281Z,993.15
2022-09-12T11:12:25.140Z,993.13
2022-09-12T11:13:25.144Z,993.13
2022-09-12T11:14:25.113Z,993.19
2022-09-12T11:15:25.142Z,993.14
2022-09-12T11:16:25.133Z,993.11
2022-09-12T11:17:25.236Z,993.14
2022-09-12T11:18:25.212Z,993.12
2022-09-12T11:19:25.088Z,993.08
2022-09-12T11:20:25.056Z,993.11
2022-09-12T11:21:25.041Z,993.07
2022-09-12T11:22:27.698Z,993.07
2022-09-12T11:23:26.069Z,993.06
2022-09-12T11:24:25.037Z,993.04
2022-09-12T11:25:25.140Z,993.04
2022-09-12T11:26:24.996Z,993.04
2022-09-12T11:27:24.977Z,993.07
2022-09-12T11:28:24.972Z,993.06
2022-09-12T11:29:25.512Z,993.09
2022-09-12T11:30:24.964Z,993.08
2022-09-12T11:31:24.926Z,993.03
2022-09-12T11:32:24.949Z,993.01
2022-09-12T11:33:24.909Z,992.98
2022-09-12T11:34:24.873Z,992.96
2022-09-12T11:35:24.869Z,992.96
2022-09-12T11:36:24.873Z,993.00
2022-09-12T11:37:24.857Z,993.03
2022-09-12T11:38:24.963Z,992.95
2022-09-12T11:39:24.821Z,992.96
2022-09-12T11:40:24.968Z,993.00
2022-09-12T11:41:24.850Z,993.00
2022-09-12T11:42:24.863Z,993.03
2022-09-12T11:43:25.458Z,993.03
2022-09-12T11:44:24.754Z,993.07
2022-09-12T11:45:24.802Z,992.97
2022-09-12T11:46:24.857Z,992.98
2022-09-12T11:47:24.698Z,993.03
2022-09-12T11:48:24.718Z,992.97
2022-09-12T11:49:24.774Z,992.93
2022-09-12T11:50:24.746Z,992.94
2022-09-12T11:51:24.718Z,992.93
2022-09-12T11:52:24.712Z,992.89
2022-09-12T11:53:24.682Z,992.91
2022-09-12T11:54:25.554Z,992.85
2022-09-12T11:55:24.672Z,992.93
2022-09-12T11:56:24.678Z,992.94
2022-09-12T11:57:24.718Z,992.96
2022-09-12T11:58:24.642Z,992.92
2022-09-12T11:59:24.588Z,992.92
2022-09-12T12:00:24.570Z,992.95
2022-09-12T12:01:24.662Z,993.00
2022-09-12T12:02:24.675Z,992.91
2022-09-12T12:03:24.660Z,992.94
2022-09-12T12:04:24.574Z,992.94
2022-09-12T12:05:24.582Z,992.86
2022-09-12T12:06:24.623Z,992.90
2022-09-12T12:07:24.611Z,992.83
2022-09-12T12:08:25.443Z,992.87
2022-09-12T12:09:24.635Z,992.84
2022-09-12T12:10:24.744Z,992.89
2022-09-12T12:11:24.498Z,992.72
2022-09-12T12:12:24.503Z,992.78
2022-09-12T12:13:24.470Z,992.81
2022-09-12T12:14:24.469Z,992.80
2022-09-12T12:15:24.463Z,992.76
2022-09-12T12:16:24.573Z,992.75
2022-09-12T12:17:24.387Z,992.72
2022-09-12T12:18:24.552Z,992.68
2022-09-12T12:19:24.400Z,992.69
2022-09-12T12:20:24.334Z,992.67
2022-09-12T12:21:24.383Z,992.70
2022-09-12T12:22:24.380Z,992.65
2022-09-12T12:23:24.359Z,992.65
2022-09-12T12:24:24.924Z,992.62
2022-09-12T12:25:28.838Z,992.64
2022-09-12T12:26:26.363Z,992.58
2022-09-12T12:27:24.276Z,992.58
2022-09-12T12:28:24.399Z,992.61